»·PEaware :: N303PW KLGB-KONT

N303PW :: KLGB-KONT

FLIGHT INFORMATION

Flight Status: Arrived
Operator: Privately registered:
United States
More flights under this callsign
Pilot: Paul W. (27512)
Aircraft: CESSNA 206 STATIONAIR
(C206)
More flights by this aircraft type
Origin: KLGB Long Beach
United States
Destination: KONT Ontario Intl
United States
More flights between these airports :: More routes between these airports
Route: DIRECTO
File this flight plan on PilotEdge
Remarks:
Altitude:
(Current/Filed)
3,500ft
Speed:
(Current/Filed)
120kts
Departed: 19-Feb-20 10:28 PM
Arrived: 19-Feb-20 10:58 PM
Distance/Time
Traveled:
31nm/0:30
Distance/Time
To Go:
Arrived

Flight Plot

Page will automatically refresh every two minutes.

Flight plan parsing failed; only flown route is shown


Map Options




Map Legend


Flown Route
Filed Route
Departure Airport
Arrival Airport
Navaid (VOR, NDB)
Fix

Horizontal Profiles

Position Reports

Time Latitude Longitude Heading Altitude Ground
Speed
19-Feb-20 21:39 33.812114 -118.150867 89 38ft 0kts
19-Feb-20 21:40 33.812114 -118.150867 89 38ft 0kts
19-Feb-20 21:41 33.812114 -118.150867 89 38ft 0kts
19-Feb-20 21:42 33.812114 -118.150867 89 38ft 0kts
19-Feb-20 21:43 33.812114 -118.150867 89 38ft 0kts
19-Feb-20 21:44 33.812114 -118.150867 89 38ft 0kts
19-Feb-20 21:45 33.812114 -118.150867 89 38ft 0kts
19-Feb-20 21:46 33.812114 -118.150867 89 38ft 0kts
19-Feb-20 21:47 33.812114 -118.150867 89 38ft 0kts
19-Feb-20 21:48 33.812114 -118.150867 89 38ft 0kts
19-Feb-20 21:49 33.812114 -118.150867 89 38ft 0kts
19-Feb-20 21:50 33.812114 -118.150867 89 38ft 0kts
19-Feb-20 21:51 33.812114 -118.150867 89 38ft 0kts
19-Feb-20 21:52 33.812114 -118.150867 89 38ft 0kts
19-Feb-20 21:53 33.812114 -118.150867 89 38ft 0kts
19-Feb-20 21:54 33.812114 -118.150867 89 38ft 0kts
19-Feb-20 21:55 33.812114 -118.150867 89 38ft 0kts
19-Feb-20 21:56 33.812114 -118.150867 89 38ft 0kts
19-Feb-20 21:57 33.812114 -118.150867 89 38ft 0kts
19-Feb-20 21:58 33.812114 -118.150867 89 38ft 0kts
19-Feb-20 21:59 33.812114 -118.150867 89 38ft 0kts
19-Feb-20 22:00 33.812114 -118.150867 89 38ft 0kts
19-Feb-20 22:01 33.812114 -118.150867 89 38ft 0kts
19-Feb-20 22:02 33.812114 -118.150867 89 38ft 0kts
19-Feb-20 22:03 33.812114 -118.150867 89 38ft 0kts
19-Feb-20 22:04 33.812114 -118.150867 89 38ft 0kts
19-Feb-20 22:05 33.812114 -118.150867 89 38ft 0kts
19-Feb-20 22:06 33.812114 -118.150867 89 38ft 0kts
19-Feb-20 22:07 33.812114 -118.150867 89 38ft 0kts
19-Feb-20 22:08 33.812114 -118.150867 89 38ft 0kts
19-Feb-20 22:09 33.812114 -118.150867 89 38ft 0kts
19-Feb-20 22:10 33.812114 -118.150867 89 38ft 0kts
19-Feb-20 22:11 33.812114 -118.150867 89 38ft 0kts
19-Feb-20 22:12 33.812114 -118.150867 89 38ft 0kts
19-Feb-20 22:13 33.812114 -118.150867 89 38ft 0kts
19-Feb-20 22:14 33.812114 -118.150867 89 38ft 0kts
19-Feb-20 22:15 33.812114 -118.150867 89 38ft 0kts
19-Feb-20 22:16 33.812114 -118.150867 89 38ft 0kts
19-Feb-20 22:18 33.812114 -118.150867 89 38ft 0kts
19-Feb-20 22:19 33.812497 -118.150215 42 37ft 15kts
19-Feb-20 22:20 33.813069 -118.148581 83 37ft 0kts
19-Feb-20 22:21 33.813069 -118.148581 83 37ft 0kts
19-Feb-20 22:22 33.813069 -118.148581 83 37ft 0kts
19-Feb-20 22:23 33.813069 -118.148581 83 37ft 0kts
19-Feb-20 22:24 33.813308 -118.147969 6 36ft 0kts
19-Feb-20 22:25 33.813308 -118.147969 6 36ft 0kts
19-Feb-20 22:26 33.813308 -118.147969 6 36ft 0kts
19-Feb-20 22:27 33.813788 -118.148013 321 36ft 9kts
19-Feb-20 22:28 33.813512 -118.170223 271 414ft 107kts
19-Feb-20 22:29 33.813906 -118.213363 250 943ft 144kts
19-Feb-20 22:30 33.776018 -118.229657 190 1500ft 150kts
19-Feb-20 22:31 33.736023 -118.237362 190 2291ft 144kts
19-Feb-20 22:32 33.694760 -118.245247 187 2410ft 177kts
19-Feb-20 22:33 33.657417 -118.226052 113 2994ft 128kts
19-Feb-20 22:33 33.667524 -118.202133 101 3427ft 82kts
19-Feb-20 22:35 33.677132 -118.174489 37 3519ft 101kts
19-Feb-20 22:36 33.702914 -118.150216 37 3510ft 138kts
19-Feb-20 22:36 33.729909 -118.125024 37 3506ft 153kts
19-Feb-20 22:38 33.751442 -118.074955 39 3506ft 156kts
19-Feb-20 22:38 33.780464 -118.048396 36 3504ft 158kts
19-Feb-20 22:39 33.815805 -118.017244 35 3518ft 157kts
19-Feb-20 22:41 33.857111 -117.981071 35 3516ft 157kts
19-Feb-20 22:41 33.886822 -117.955089 35 3515ft 157kts
19-Feb-20 22:42 33.922179 -117.924162 35 3513ft 155kts
19-Feb-20 22:44 33.952905 -117.897261 35 3220ft 98kts
19-Feb-20 22:44 33.970319 -117.882026 35 2748ft 90kts
19-Feb-20 22:45 33.989436 -117.865277 36 2312ft 71kts
19-Feb-20 22:46 34.008275 -117.848802 35 2359ft 87kts
19-Feb-20 22:47 34.028892 -117.830803 35 2617ft 96kts
19-Feb-20 22:48 34.050387 -117.810069 67 2868ft 102kts
19-Feb-20 22:49 34.050568 -117.771813 97 2656ft 122kts
19-Feb-20 22:50 34.046289 -117.732246 93 2373ft 123kts
19-Feb-20 22:51 34.043257 -117.691331 92 2113ft 116kts
19-Feb-20 22:52 34.041434 -117.653057 95 1966ft 109kts
19-Feb-20 22:53 34.037265 -117.618206 97 1858ft 102kts
19-Feb-20 22:54 34.032813 -117.586837 101 1513ft 88kts
19-Feb-20 22:55 34.037585 -117.565002 357 1198ft 85kts
19-Feb-20 22:56 34.055079 -117.578654 267 994ft 89kts
19-Feb-20 22:57 34.053946 -117.594757 253 915ft 0kts
19-Feb-20 22:58 34.053824 -117.601832 268 915ft 39kts
19-Feb-20 22:59 34.053834 -117.610749 271 923ft 24kts
19-Feb-20 23:00 34.054912 -117.609607 86 926ft 62kts
19-Feb-20 23:01 34.055365 -117.584889 89 1838ft 79kts
19-Feb-20 23:02 34.056623 -117.588490 268 926ft 63kts
19-Feb-20 23:03 34.056209 -117.607211 261 1196ft 74kts
19-Feb-20 23:04 34.054393 -117.603157 63 981ft 70kts
19-Feb-20 23:05 34.056320 -117.581184 78 1460ft 69kts
19-Feb-20 23:06 34.058925 -117.563033 293 1504ft 119kts
19-Feb-20 23:07 34.056801 -117.595213 267 927ft 55kts
19-Feb-20 23:08 34.055114 -117.604918 29 919ft 0kts

Navigation Log

Ident Type
Flight plan parsing failed, navigation log unavailable